LFLB/CMF METAR and TAF weather

Enter ICAO airport designator
Station Type Date Time Source
LFLB METAR 2019/06/17 04:30 UTC NOAA

LFLB 170430Z AUTO 18003KT CAVOK 12/11 Q1018 NOSIG


Station Type Date Time Source
LFLB Decoded METAR 2019/06/17 04:30 UTC NOAA

Chambery / Aix-Les-Bains, France (LFLB) 45-39N 005-53E 239M
Jun 17, 2019 - 12:30 AM EDT / 2019.06.17 0430 UTC
Wind: from the S (180 degrees) at 3 MPH (3 KT):0
Visibility: greater than 7 mile(s):0
Temperature: 53 F (12 C)
Dew Point: 51 F (11 C)
Relative Humidity: 93%
Pressure (altimeter): 30.06 in. Hg (1018 hPa)
ob: LFLB 170430Z AUTO 18003KT CAVOK 12/11 Q1018 NOSIG
cycle: 4

Station Type Date Time Source
LFLB TAF 2019/06/16 19:10 UTC NOAA

TAF LFLB 161903Z 1619/1712 CNL

Example: see airport list